createdAt,value
2022-10-05T00:01:19.287Z,13.00
2022-10-05T00:03:46.123Z,13.00
2022-10-05T00:06:13.370Z,13.00
2022-10-05T00:08:41.717Z,13.00
2022-10-05T00:11:09.389Z,13.00
2022-10-05T00:13:49.058Z,13.10
2022-10-05T00:16:21.235Z,13.10
2022-10-05T00:18:53.865Z,13.10
2022-10-05T00:21:26.905Z,13.10
2022-10-05T00:23:57.652Z,13.10
2022-10-05T00:26:27.086Z,13.10
2022-10-05T00:28:55.157Z,13.10
2022-10-05T00:31:27.160Z,13.10
2022-10-05T00:33:55.444Z,13.10
2022-10-05T00:36:22.569Z,13.10
2022-10-05T00:38:49.727Z,13.10
2022-10-05T00:41:23.134Z,13.10
2022-10-05T00:43:57.727Z,13.10
2022-10-05T00:46:48.656Z,13.10
2022-10-05T00:49:35.812Z,13.20
2022-10-05T00:52:27.791Z,13.20
2022-10-05T00:55:33.101Z,13.20
2022-10-05T00:58:32.365Z,13.20
2022-10-05T01:01:27.225Z,13.20
2022-10-05T01:04:19.997Z,13.20
2022-10-05T01:06:50.245Z,13.20
2022-10-05T01:09:31.374Z,13.20
2022-10-05T01:12:07.443Z,13.20
2022-10-05T01:14:51.448Z,13.20
2022-10-05T01:17:44.788Z,13.20
2022-10-05T01:20:32.828Z,13.20
2022-10-05T01:23:12.631Z,13.20
2022-10-05T01:26:18.570Z,13.20
2022-10-05T01:28:56.934Z,13.20
2022-10-05T01:31:23.907Z,13.20
2022-10-05T01:34:12.565Z,13.30
2022-10-05T01:36:49.894Z,13.20
2022-10-05T01:39:46.490Z,13.20
2022-10-05T01:42:51.530Z,13.30
2022-10-05T01:46:04.097Z,13.20
2022-10-05T01:48:46.104Z,13.20
2022-10-05T01:51:37.876Z,13.20
2022-10-05T01:54:30.431Z,13.20
2022-10-05T01:57:15.947Z,13.20
2022-10-05T01:59:54.789Z,13.20
2022-10-05T02:02:24.179Z,13.20
2022-10-05T02:05:03.479Z,13.20
2022-10-05T02:07:39.105Z,13.20
2022-10-05T02:10:22.327Z,13.20
2022-10-05T02:12:55.351Z,13.20
2022-10-05T02:15:32.450Z,13.20
2022-10-05T02:18:07.186Z,13.20
2022-10-05T02:20:37.274Z,13.20
2022-10-05T02:23:09.438Z,13.20
2022-10-05T02:25:40.658Z,13.20
2022-10-05T02:28:23.804Z,13.20
2022-10-05T02:30:56.905Z,13.20
2022-10-05T02:33:28.966Z,13.20
2022-10-05T02:36:02.636Z,13.30
2022-10-05T02:38:30.505Z,13.30
2022-10-05T02:41:31.092Z,13.30
2022-10-05T02:44:14.399Z,13.30
2022-10-05T02:46:58.130Z,13.30
2022-10-05T02:50:00.891Z,13.30
2022-10-05T02:53:43.207Z,13.30
2022-10-05T02:56:29.554Z,13.30
2022-10-05T02:58:56.593Z,13.30
2022-10-05T03:01:27.849Z,13.40
2022-10-05T03:04:18.062Z,13.30
2022-10-05T03:06:52.985Z,13.40
2022-10-05T03:09:21.498Z,13.30
2022-10-05T03:12:05.642Z,13.30
2022-10-05T03:14:46.570Z,13.40
2022-10-05T03:17:21.036Z,13.30
2022-10-05T03:20:03.374Z,13.30
2022-10-05T03:22:58.067Z,13.40
2022-10-05T03:25:43.942Z,13.30
2022-10-05T03:28:20.406Z,13.30
2022-10-05T03:30:57.018Z,13.40
2022-10-05T03:33:46.749Z,13.40
2022-10-05T03:36:21.860Z,13.40
2022-10-05T03:39:00.944Z,13.40
2022-10-05T03:41:36.807Z,13.40
2022-10-05T03:44:23.273Z,13.40
2022-10-05T03:46:58.807Z,13.40
2022-10-05T03:49:34.831Z,13.40
2022-10-05T03:52:09.886Z,13.50
2022-10-05T03:54:39.792Z,13.50
2022-10-05T03:57:11.607Z,13.40
2022-10-05T04:00:05.182Z,13.50
2022-10-05T04:02:43.665Z,13.40
2022-10-05T04:05:10.665Z,13.50
2022-10-05T04:07:49.868Z,13.50
2022-10-05T04:10:38.226Z,13.50
2022-10-05T04:13:09.743Z,13.50
2022-10-05T04:15:41.410Z,13.50
2022-10-05T04:18:16.357Z,13.50
2022-10-05T04:20:48.838Z,13.50
2022-10-05T04:23:34.417Z,13.40
2022-10-05T04:26:06.431Z,13.40
2022-10-05T04:28:43.626Z,13.50
2022-10-05T04:31:13.636Z,13.50
2022-10-05T04:33:40.806Z,13.50
2022-10-05T04:36:22.113Z,13.50
2022-10-05T04:38:48.968Z,13.50
2022-10-05T04:41:24.867Z,13.50
2022-10-05T04:44:05.416Z,13.50
2022-10-05T04:46:39.203Z,13.50
2022-10-05T04:49:09.022Z,13.50
2022-10-05T04:51:54.876Z,13.50
2022-10-05T04:54:35.390Z,13.50
2022-10-05T04:57:03.239Z,13.50
2022-10-05T04:59:41.066Z,13.50
2022-10-05T05:02:21.482Z,13.50
2022-10-05T05:04:54.762Z,13.50
2022-10-05T05:07:40.792Z,13.50
2022-10-05T05:10:23.277Z,13.50
2022-10-05T05:12:50.087Z,13.50
2022-10-05T05:15:22.452Z,13.50
2022-10-05T05:17:59.009Z,13.50
2022-10-05T05:20:45.785Z,13.50
2022-10-05T05:23:19.253Z,13.50
2022-10-05T05:25:52.010Z,13.50
2022-10-05T05:28:35.206Z,13.50
2022-10-05T05:31:21.720Z,13.50
2022-10-05T05:34:11.866Z,13.50
2022-10-05T05:36:38.702Z,13.50
2022-10-05T05:39:05.651Z,13.50
2022-10-05T05:41:37.743Z,13.50
2022-10-05T05:44:10.882Z,13.60
2022-10-05T05:47:02.453Z,13.60
2022-10-05T05:49:29.753Z,13.50
2022-10-05T05:52:24.099Z,13.60
2022-10-05T05:55:00.114Z,13.60
2022-10-05T05:57:27.310Z,13.60
2022-10-05T06:00:00.543Z,13.60
2022-10-05T06:02:31.605Z,13.60
2022-10-05T06:05:02.553Z,13.60
2022-10-05T06:07:30.938Z,13.60
2022-10-05T06:10:26.327Z,13.60
2022-10-05T06:13:05.162Z,13.60
2022-10-05T06:15:38.611Z,13.60
2022-10-05T06:18:10.490Z,13.60
2022-10-05T06:20:40.531Z,13.60
2022-10-05T06:23:13.874Z,13.60
2022-10-05T06:25:56.152Z,13.60
2022-10-05T06:28:25.040Z,13.60
2022-10-05T06:31:06.959Z,13.70
2022-10-05T06:33:48.443Z,13.60
2022-10-05T06:36:32.449Z,13.70
2022-10-05T06:39:03.876Z,13.70
2022-10-05T06:41:44.387Z,13.70
2022-10-05T06:44:14.309Z,13.70
2022-10-05T06:46:59.342Z,13.70
2022-10-05T06:50:04.066Z,13.70
2022-10-05T06:52:43.923Z,13.70
2022-10-05T06:55:43.341Z,13.80
2022-10-05T06:58:13.335Z,13.80
2022-10-05T07:00:49.035Z,13.80
2022-10-05T07:03:19.108Z,13.80
2022-10-05T07:05:55.600Z,13.80
2022-10-05T07:08:25.636Z,13.80
2022-10-05T07:11:04.475Z,13.80
2022-10-05T07:13:51.354Z,13.80
2022-10-05T07:16:24.545Z,13.90
2022-10-05T07:19:30.071Z,13.90
2022-10-05T07:22:11.188Z,13.90
2022-10-05T07:24:48.001Z,13.90
2022-10-05T07:27:20.504Z,13.90
2022-10-05T07:30:02.741Z,13.90
2022-10-05T07:32:50.201Z,14.00
2022-10-05T07:35:40.576Z,14.00
2022-10-05T07:38:12.230Z,14.00
2022-10-05T07:40:41.893Z,14.00
2022-10-05T07:43:19.148Z,14.00
2022-10-05T07:45:47.269Z,14.00
2022-10-05T07:48:33.132Z,14.00
2022-10-05T07:51:20.978Z,14.10
2022-10-05T07:53:52.579Z,14.10
2022-10-05T07:56:21.946Z,14.10
2022-10-05T07:58:51.962Z,14.10
2022-10-05T08:01:26.208Z,14.10
2022-10-05T08:04:03.448Z,14.10
2022-10-05T08:06:30.252Z,14.20
2022-10-05T08:09:01.590Z,14.20
2022-10-05T08:11:31.210Z,14.20
2022-10-05T08:14:06.334Z,14.20
2022-10-05T08:16:36.302Z,14.30
2022-10-05T08:19:10.962Z,14.30
2022-10-05T08:21:39.641Z,14.30
2022-10-05T08:24:12.145Z,14.30
2022-10-05T08:26:47.251Z,14.30
2022-10-05T08:29:25.031Z,14.40
2022-10-05T08:32:03.187Z,14.40
2022-10-05T08:34:49.346Z,14.40
2022-10-05T08:37:39.313Z,14.50
2022-10-05T08:40:12.067Z,14.50
2022-10-05T08:42:44.766Z,14.60
2022-10-05T08:45:14.667Z,14.60
2022-10-05T08:48:00.590Z,14.70
2022-10-05T08:50:31.218Z,14.70
2022-10-05T08:52:58.030Z,14.70
2022-10-05T08:55:46.145Z,14.70
2022-10-05T08:58:18.994Z,14.70
2022-10-05T09:00:54.998Z,14.70
2022-10-05T09:03:34.318Z,14.70
2022-10-05T09:06:20.269Z,14.80
2022-10-05T09:08:54.837Z,14.80
2022-10-05T09:11:25.474Z,14.80
2022-10-05T09:13:56.028Z,14.90
2022-10-05T09:16:35.073Z,14.90
2022-10-05T09:19:14.285Z,15.00
2022-10-05T09:21:42.250Z,15.00
2022-10-05T09:24:15.210Z,15.00
2022-10-05T09:26:43.511Z,15.00
2022-10-05T09:29:29.238Z,15.10
2022-10-05T09:32:06.989Z,15.10
2022-10-05T09:34:37.067Z,15.10
2022-10-05T09:37:09.876Z,15.20
2022-10-05T09:39:59.126Z,15.20
2022-10-05T09:42:46.852Z,15.20
2022-10-05T09:45:35.778Z,15.20
2022-10-05T09:48:08.693Z,15.20
2022-10-05T09:50:40.843Z,15.20
2022-10-05T09:53:27.214Z,15.20
2022-10-05T09:56:20.303Z,15.30
2022-10-05T09:58:48.241Z,15.30
2022-10-05T10:01:36.406Z,15.30
2022-10-05T10:04:07.957Z,15.40
2022-10-05T10:06:38.001Z,15.40
2022-10-05T10:09:25.379Z,15.50
2022-10-05T10:11:52.168Z,15.50
2022-10-05T10:14:39.082Z,15.50
2022-10-05T10:17:12.422Z,15.50
2022-10-05T10:19:51.590Z,15.50
2022-10-05T10:22:24.525Z,15.50
2022-10-05T10:25:03.699Z,15.50
2022-10-05T10:27:32.111Z,15.50
2022-10-05T10:29:58.844Z,15.40
2022-10-05T10:32:31.751Z,15.40
2022-10-05T10:35:13.940Z,15.40
2022-10-05T10:37:40.866Z,15.40
2022-10-05T10:40:26.890Z,15.40
2022-10-05T10:43:12.479Z,15.40
2022-10-05T10:45:58.214Z,15.40
2022-10-05T10:48:31.166Z,15.40
2022-10-05T10:51:10.111Z,15.40
2022-10-05T10:53:49.099Z,15.30
2022-10-05T10:56:28.298Z,15.30
2022-10-05T10:58:55.152Z,15.30
2022-10-05T11:01:31.243Z,15.40
2022-10-05T11:04:04.381Z,15.40
2022-10-05T11:06:40.541Z,15.30
2022-10-05T11:09:08.218Z,15.40
2022-10-05T11:11:37.967Z,15.30
2022-10-05T11:14:11.006Z,15.30
2022-10-05T11:16:37.729Z,15.30
2022-10-05T11:19:35.255Z,15.30
2022-10-05T11:22:26.352Z,15.40
2022-10-05T11:25:03.559Z,15.40
2022-10-05T11:27:41.572Z,15.40
2022-10-05T11:30:17.688Z,15.40
2022-10-05T11:33:05.573Z,15.40
2022-10-05T11:35:36.489Z,15.40
2022-10-05T11:38:06.244Z,15.40
2022-10-05T11:40:39.346Z,15.40
2022-10-05T11:43:25.130Z,15.40
2022-10-05T11:46:11.092Z,15.50
2022-10-05T11:48:44.010Z,15.40
2022-10-05T11:51:16.891Z,15.40
2022-10-05T11:53:50.647Z,15.40
2022-10-05T11:56:36.499Z,15.40
2022-10-05T11:59:15.688Z,15.50
2022-10-05T12:01:48.550Z,15.50
2022-10-05T12:04:15.356Z,15.50
2022-10-05T12:06:57.517Z,15.60
2022-10-05T12:09:27.726Z,15.60
2022-10-05T12:12:09.176Z,15.60
2022-10-05T12:14:52.551Z,15.60
2022-10-05T12:17:35.262Z,15.70
2022-10-05T12:20:15.397Z,15.70
2022-10-05T12:22:49.059Z,15.70
2022-10-05T12:25:21.837Z,15.80
2022-10-05T12:27:58.892Z,15.80
2022-10-05T12:30:28.851Z,15.80
2022-10-05T12:33:04.753Z,15.80
2022-10-05T12:35:57.817Z,15.80
2022-10-05T12:38:25.537Z,15.90
2022-10-05T12:40:59.175Z,15.90
2022-10-05T12:43:26.083Z,15.80
2022-10-05T12:46:05.249Z,15.90
2022-10-05T12:48:52.682Z,15.90
2022-10-05T12:51:28.646Z,15.90
2022-10-05T12:53:55.419Z,15.90
2022-10-05T12:56:34.496Z,15.90
2022-10-05T12:59:01.253Z,15.90
2022-10-05T13:01:34.259Z,15.90
2022-10-05T13:04:06.034Z,16.00
2022-10-05T13:06:40.666Z,16.00
2022-10-05T13:09:14.267Z,16.00
2022-10-05T13:11:52.714Z,16.10
2022-10-05T13:14:35.301Z,16.10
2022-10-05T13:17:16.907Z,16.10
2022-10-05T13:19:47.783Z,16.20
2022-10-05T13:22:14.487Z,16.20
2022-10-05T13:24:59.273Z,16.20
2022-10-05T13:27:27.687Z,16.20
2022-10-05T13:29:56.936Z,16.20
2022-10-05T13:32:29.859Z,16.30
2022-10-05T13:35:04.219Z,16.20
2022-10-05T13:37:35.762Z,16.20
2022-10-05T13:40:10.287Z,16.20
2022-10-05T13:42:37.708Z,16.30
2022-10-05T13:45:17.044Z,16.30
2022-10-05T13:48:02.517Z,16.30
2022-10-05T13:50:34.562Z,16.30
2022-10-05T13:53:25.752Z,16.30
2022-10-05T13:55:55.541Z,16.30
2022-10-05T13:58:41.277Z,16.40
2022-10-05T14:01:16.437Z,16.40
2022-10-05T14:04:05.805Z,16.40
2022-10-05T14:06:34.899Z,16.50
2022-10-05T14:09:04.931Z,16.50
2022-10-05T14:11:35.915Z,16.50
2022-10-05T14:14:04.467Z,16.50
2022-10-05T14:16:33.459Z,16.50
2022-10-05T14:19:06.343Z,16.50
2022-10-05T14:21:43.006Z,16.50
2022-10-05T14:24:45.157Z,16.50
2022-10-05T14:27:18.307Z,16.50
2022-10-05T14:30:00.515Z,16.50
2022-10-05T14:32:30.953Z,16.50
2022-10-05T14:35:12.878Z,16.50
2022-10-05T14:38:00.469Z,16.60
2022-10-05T14:40:34.736Z,16.60
2022-10-05T14:43:21.719Z,16.60
2022-10-05T14:45:52.692Z,16.60
2022-10-05T14:48:19.487Z,16.60
2022-10-05T14:50:54.970Z,16.60
2022-10-05T14:53:26.225Z,16.60
2022-10-05T14:56:11.985Z,16.60
2022-10-05T14:58:57.314Z,16.60
2022-10-05T15:01:31.831Z,16.60
2022-10-05T15:04:11.037Z,16.60
2022-10-05T15:06:53.319Z,16.70
2022-10-05T15:09:24.978Z,16.70
2022-10-05T15:11:57.234Z,16.70
2022-10-05T15:14:30.163Z,16.70
2022-10-05T15:16:58.650Z,16.70
2022-10-05T15:19:34.709Z,16.70
2022-10-05T15:22:04.640Z,16.70
2022-10-05T15:24:42.685Z,16.70
2022-10-05T15:27:16.693Z,16.70
2022-10-05T15:29:52.193Z,16.70
2022-10-05T15:32:34.277Z,16.70
2022-10-05T15:35:20.319Z,16.70
2022-10-05T15:37:52.107Z,16.70
2022-10-05T15:40:25.234Z,16.70
2022-10-05T15:42:54.653Z,16.70
2022-10-05T15:45:23.462Z,16.70
2022-10-05T15:47:59.928Z,16.70
2022-10-05T15:50:28.166Z,16.70
2022-10-05T15:53:13.843Z,16.70
2022-10-05T15:55:40.572Z,16.70
2022-10-05T15:58:08.356Z,16.60
2022-10-05T16:00:40.441Z,16.60
2022-10-05T16:03:16.626Z,16.70
2022-10-05T16:06:14.343Z,16.70
2022-10-05T16:08:56.616Z,16.70
2022-10-05T16:11:42.424Z,16.70
2022-10-05T16:14:12.669Z,16.70
2022-10-05T16:17:04.440Z,16.70
2022-10-05T16:19:43.706Z,16.70
2022-10-05T16:22:15.241Z,16.70
2022-10-05T16:25:00.799Z,16.70
2022-10-05T16:27:33.570Z,16.70
2022-10-05T16:30:08.748Z,16.60
2022-10-05T16:32:50.020Z,16.60
2022-10-05T16:35:20.471Z,16.60
2022-10-05T16:38:06.102Z,16.60
2022-10-05T16:40:44.341Z,16.60
2022-10-05T16:43:18.437Z,16.50
2022-10-05T16:46:04.070Z,16.50
2022-10-05T16:48:30.891Z,16.50
2022-10-05T16:51:16.573Z,16.50
2022-10-05T16:53:59.174Z,16.50
2022-10-05T16:56:28.769Z,16.50
2022-10-05T16:59:10.828Z,16.40
2022-10-05T17:02:01.450Z,16.40
2022-10-05T17:04:40.294Z,16.40
2022-10-05T17:07:17.096Z,16.40
2022-10-05T17:10:12.874Z,16.40
2022-10-05T17:12:42.982Z,16.40
2022-10-05T17:15:29.157Z,16.40
2022-10-05T17:18:07.148Z,16.40
2022-10-05T17:20:42.981Z,16.40
2022-10-05T17:23:16.028Z,16.40
2022-10-05T17:25:49.485Z,16.40
2022-10-05T17:28:35.347Z,16.40
2022-10-05T17:31:08.428Z,16.40
2022-10-05T17:33:55.337Z,16.40
2022-10-05T17:36:36.077Z,16.40
2022-10-05T17:39:12.246Z,16.40
2022-10-05T17:41:39.125Z,16.40
2022-10-05T17:44:21.315Z,16.40
2022-10-05T17:46:51.286Z,16.30
2022-10-05T17:49:21.127Z,16.30
2022-10-05T17:52:06.873Z,16.30
2022-10-05T17:55:08.823Z,16.30
2022-10-05T17:57:36.947Z,16.30
2022-10-05T18:00:08.654Z,16.30
2022-10-05T18:02:37.431Z,16.30
2022-10-05T18:05:09.242Z,16.30
2022-10-05T18:07:36.765Z,16.30
2022-10-05T18:10:09.613Z,16.20
2022-10-05T18:12:36.606Z,16.20
2022-10-05T18:15:03.333Z,16.20
2022-10-05T18:17:51.394Z,16.20
2022-10-05T18:20:24.466Z,16.20
2022-10-05T18:22:53.472Z,16.20
2022-10-05T18:25:27.219Z,16.30
2022-10-05T18:27:54.182Z,16.30
2022-10-05T18:30:22.410Z,16.20
2022-10-05T18:32:52.234Z,16.20
2022-10-05T18:35:39.741Z,16.20
2022-10-05T18:38:06.763Z,16.20
2022-10-05T18:40:34.635Z,16.20
2022-10-05T18:43:11.397Z,16.20
2022-10-05T18:45:58.331Z,16.20
2022-10-05T18:48:35.661Z,16.20
2022-10-05T18:51:20.258Z,16.20
2022-10-05T18:54:05.930Z,16.10
2022-10-05T18:56:39.070Z,16.10
2022-10-05T18:59:06.334Z,16.10
2022-10-05T19:01:52.315Z,16.10
2022-10-05T19:04:37.938Z,16.10
2022-10-05T19:07:15.925Z,16.10
2022-10-05T19:09:46.983Z,16.10
2022-10-05T19:12:37.001Z,16.00
2022-10-05T19:15:13.689Z,16.00
2022-10-05T19:17:50.007Z,16.10
2022-10-05T19:20:34.057Z,16.10
2022-10-05T19:23:09.021Z,16.00
2022-10-05T19:25:37.679Z,16.10
2022-10-05T19:28:13.889Z,16.10
2022-10-05T19:30:50.044Z,16.10
2022-10-05T19:33:23.223Z,16.10
2022-10-05T19:35:59.208Z,16.10
2022-10-05T19:38:41.330Z,16.10
2022-10-05T19:41:16.298Z,16.10
2022-10-05T19:43:46.188Z,16.20
2022-10-05T19:46:31.759Z,16.20
2022-10-05T19:49:01.965Z,16.20
2022-10-05T19:51:31.010Z,16.20
2022-10-05T19:54:00.492Z,16.20
2022-10-05T19:56:30.061Z,16.20
2022-10-05T19:58:57.555Z,16.20
2022-10-05T20:01:26.224Z,16.20
2022-10-05T20:03:53.587Z,16.20
2022-10-05T20:06:21.844Z,16.30
2022-10-05T20:08:49.728Z,16.30
2022-10-05T20:11:17.688Z,16.30
2022-10-05T20:14:09.482Z,16.30
2022-10-05T20:16:55.185Z,16.30
2022-10-05T20:19:53.172Z,16.30
2022-10-05T20:22:37.433Z,16.30
2022-10-05T20:25:19.588Z,16.40
2022-10-05T20:27:46.695Z,16.30
2022-10-05T20:30:34.103Z,16.40
2022-10-05T20:33:01.638Z,16.40
2022-10-05T20:35:30.489Z,16.30
2022-10-05T20:37:59.443Z,16.40
2022-10-05T20:40:28.925Z,16.40
2022-10-05T20:42:56.350Z,16.40
2022-10-05T20:45:23.450Z,16.40
2022-10-05T20:47:51.384Z,16.40
2022-10-05T20:50:18.733Z,16.30
2022-10-05T20:52:49.613Z,16.30
2022-10-05T20:55:17.486Z,16.30
2022-10-05T20:57:46.173Z,16.40
2022-10-05T21:00:15.020Z,16.40
2022-10-05T21:02:41.796Z,16.40
2022-10-05T21:05:09.951Z,16.40
2022-10-05T21:07:36.906Z,16.50
2022-10-05T21:10:03.924Z,16.50
2022-10-05T21:12:30.793Z,16.50
2022-10-05T21:14:59.663Z,16.50
2022-10-05T21:17:26.479Z,16.40
2022-10-05T21:19:55.421Z,16.50
2022-10-05T21:22:23.230Z,16.50
2022-10-05T21:24:50.985Z,16.50
2022-10-05T21:27:18.779Z,16.50
2022-10-05T21:29:46.084Z,16.50
2022-10-05T21:32:14.324Z,16.40
2022-10-05T21:34:42.280Z,16.50
2022-10-05T21:37:10.461Z,16.40
2022-10-05T21:39:37.371Z,16.40
2022-10-05T21:42:04.456Z,16.40
2022-10-05T21:44:31.214Z,16.50
2022-10-05T21:46:58.231Z,16.50
2022-10-05T21:49:25.598Z,16.50
2022-10-05T21:51:52.973Z,16.50
2022-10-05T21:54:21.039Z,16.50
2022-10-05T21:56:49.446Z,16.50
2022-10-05T21:59:18.747Z,16.50
2022-10-05T22:01:45.965Z,16.50
2022-10-05T22:04:12.789Z,16.50
2022-10-05T22:06:40.489Z,16.50
2022-10-05T22:09:09.335Z,16.60
2022-10-05T22:11:36.453Z,16.60
2022-10-05T22:14:03.322Z,16.60
2022-10-05T22:16:33.103Z,16.60
2022-10-05T22:19:04.328Z,16.60
2022-10-05T22:21:32.831Z,16.60
2022-10-05T22:24:02.365Z,16.60
2022-10-05T22:26:29.435Z,16.60
2022-10-05T22:28:56.960Z,16.60
2022-10-05T22:31:23.842Z,16.70
2022-10-05T22:33:51.238Z,16.60
2022-10-05T22:36:18.619Z,16.60
2022-10-05T22:38:47.445Z,16.60
2022-10-05T22:41:15.094Z,16.60
2022-10-05T22:43:42.124Z,16.60
2022-10-05T22:46:12.474Z,16.50
2022-10-05T22:48:39.626Z,16.50
2022-10-05T22:51:06.975Z,16.50
2022-10-05T22:53:34.194Z,16.40
2022-10-05T22:56:08.483Z,16.40
2022-10-05T22:58:35.935Z,16.40
2022-10-05T23:01:03.934Z,16.40
2022-10-05T23:03:31.404Z,16.40
2022-10-05T23:05:59.411Z,16.40
2022-10-05T23:08:26.738Z,16.40
2022-10-05T23:10:53.931Z,16.40
2022-10-05T23:13:22.513Z,16.30
2022-10-05T23:15:49.301Z,16.20
2022-10-05T23:18:16.723Z,16.20
2022-10-05T23:20:43.691Z,16.20
2022-10-05T23:23:10.622Z,16.20
2022-10-05T23:25:37.344Z,16.20
2022-10-05T23:28:04.063Z,16.20
2022-10-05T23:30:31.158Z,16.20
2022-10-05T23:32:58.029Z,16.20
2022-10-05T23:35:24.765Z,16.20
2022-10-05T23:37:51.570Z,16.20
2022-10-05T23:40:18.385Z,16.10
2022-10-05T23:42:45.095Z,16.10
2022-10-05T23:45:12.169Z,16.10
2022-10-05T23:47:39.621Z,16.10
2022-10-05T23:50:07.253Z,16.00
2022-10-05T23:52:34.459Z,16.00
2022-10-05T23:55:02.088Z,15.90
2022-10-05T23:57:28.822Z,15.80
2022-10-05T23:59:56.359Z,15.80
